Latest Coastal Weather Observations for South Johnstone

IDQ60701

Issued at 5:46 am EST Wednesday 27 July 2016 (issued every 10 minutes, with the page automatically refreshed every 10 minutes)

About coastal observations | Map of coastal stations | Coastal observations for QLD | Marine services | Other Formats
Station Details ID: 032037 Name: SOUTH JOHNSTONE EXP STN Lat: -17.61 Lon: 146.00 Height: 18.3 m
Data from the previous 72 hours. | See also: Recent months at South Johnstone
Date/Time
EST
Temp
°C
Wind Pressure Rain since
9am
mm
Weather Cloud Vis
km
Sea
Height
m
Swell
Dir  Spd
kts
Gust
kts
hPa Trend Height
m
Period
s
Dir
27/05:30am 20.5 WSW 4 7 1016.3 - 0.2 - - - - - - -
27/05:00am 20.0 WSW 6 7 1016.0 - 0.0 - - - - - - -
27/04:30am 19.9 WSW 5 7 1015.9 - 0.0 - - - - - - -
27/04:00am 19.8 WSW 5 7 1015.9 - 0.0 - - - - - - -
27/03:30am 19.9 WSW 6 7 1015.9 - 0.0 - - - - - - -
27/03:00am 19.8 WSW 6 7 1015.8 - 0.0 - - - - - - -
27/02:30am 19.7 W 4 7 1016.1 - 0.0 - - - - - - -
27/02:00am 19.8 WSW 6 7 1016.2 - 0.0 - - - - - - -
27/01:30am 19.9 WSW 5 6 1016.6 - 0.0 - - - - - - -
27/01:00am 20.2 WSW 5 7 1016.6 - 0.0 - - - - - - -
27/12:30am 20.4 WSW 5 7 1016.7 - 0.0 - - - - - - -
27/12:00am 20.8 SW 5 7 1016.7 - 0.0 - - - - - - -
 
Date/Time
EST
Temp
°C
Wind Pressure Rain since
9am
mm
Weather Cloud Vis
km
Sea
Height
m
Swell
Dir  Spd
kts
Gust
kts
hPa Trend Height
m
Period
s
Dir
26/11:30pm 21.3 SW 4 6 1016.9 - 0.0 - - - - - - -
26/11:00pm 21.6 SW 5 9 1017.1 - 0.0 - - - - - - -
26/10:30pm 21.2 SW 5 7 1017.2 - 0.0 - - - - - - -
26/10:00pm 21.0 WSW 4 6 1017.1 - 0.0 - - - - - - -
26/09:30pm 21.0 W 4 6 1016.9 - 0.0 - - - - - - -
26/09:00pm 21.1 WSW 4 6 1016.7 - 0.0 - - - - - - -
26/08:30pm 21.0 SW 5 6 1016.6 - 0.0 - - - - - - -
26/08:00pm 21.4 WSW 5 8 1016.3 - 0.0 - - - - - - -
26/07:30pm 21.3 WSW 4 5 1016.2 - 0.0 - - - - - - -
26/07:00pm 21.5 WSW 3 5 1015.8 - 0.0 - - - - - - -
26/06:30pm 22.0 S 3 5 1015.6 - 0.0 - - - - - - -
26/06:00pm 22.6 S 4 7 1015.1 - 0.0 - - - - - - -
26/05:30pm 23.1 S 5 8 1014.9 - 0.0 - - - - - - -
26/05:00pm 23.3 S 6 8 1014.7 - 0.0 - - - - - - -
26/04:30pm 23.1 S 4 6 1014.6 - 0.0 - - - - - - -
26/04:00pm 23.5 SE 7 11 1014.5 - 0.0 - - - - - - -
26/03:30pm 24.0 SE 10 16 1014.4 - 0.0 - - - - - - -
26/03:00pm 25.7 S 6 9 1014.2 - 0.0 - - - - - - -
26/02:30pm 25.3 S 8 12 1014.5 - 0.0 - - - - - - -
26/02:00pm 25.6 SE 9 13 1014.8 - 0.0 - - - - - - -
26/01:30pm 25.6 SE 8 13 1015.1 - 0.0 - - - - - - -
26/01:00pm 25.5 SSE 8 13 1015.2 - 0.0 - - - - - - -
26/12:30pm 25.7 S 7 11 1015.7 - 0.0 - - - - - - -
26/12:00pm 24.9 SSE 8 13 1016.0 - 0.0 - - - - - - -
26/11:30am 24.5 SSE 7 10 1016.4 - 0.0 - - - - - - -
26/11:00am 24.7 S 7 9 1016.9 - 0.0 - - - - - - -
26/10:30am 24.1 SSE 5 10 1017.3 - 0.0 - - - - - - -
26/10:00am 23.6 SSW 4 8 1017.5 - 0.0 - - - - - - -
26/09:30am 22.1 SSW 2 5 1017.4 - 0.0 - - - - - - -
26/09:00am 20.5 W 1 4 1017.1 - 1.2 - - - - - - -
26/08:30am 19.8 CALM 0 0 1016.9 - 1.0 - - - - - - -
26/08:00am 19.3 WSW 1 3 1016.9 - 1.0 - - - - - - -
26/07:30am 19.1 WSW 1 4 1016.6 - 1.0 - - - - - - -
26/07:00am 18.1 NNE 1 5 1016.2 - 0.4 - - - - - - -
26/06:30am 17.9 NNW 1 3 1016.0 - 0.0 - - - - - - -
26/06:00am 17.6 CALM 0 0 1015.7 - 0.0 - - - - - - -
26/05:30am 17.6 CALM 0 0 1015.5 - 0.0 - - - - - - -
26/05:00am 17.7 WSW 3 5 1015.5 - 0.0 - - - - - - -
26/04:30am 17.7 W 2 5 1015.4 - 0.0 - - - - - - -
26/04:00am 17.8 CALM 0 3 1015.4 - 0.0 - - - - - - -
26/03:30am 17.9 CALM 0 4 1015.5 - 0.0 - - - - - - -
26/03:00am 17.7 CALM 0 1 1015.8 - 0.0 - - - - - - -
26/02:30am 17.6 NNW 3 5 1015.9 - 0.0 - - - - - - -
26/02:00am 17.7 W 1 5 1016.0 - 0.0 - - - - - - -
26/01:30am 17.8 W 3 6 1016.4 - 0.0 - - - - - - -
26/01:00am 18.0 WNW 3 5 1016.8 - 0.0 - - - - - - -
26/12:30am 18.1 WNW 3 7 1016.8 - 0.0 - - - - - - -
26/12:00am 18.2 W 2 4 1016.8 - 0.0 - - - - - - -
 
Date/Time
EST
Temp
°C
Wind Pressure Rain since
9am
mm
Weather Cloud Vis
km
Sea
Height
m
Swell
Dir  Spd
kts
Gust
kts
hPa Trend Height
m
Period
s
Dir
25/11:30pm 18.6 CALM 0 4 1017.1 - 0.0 - - - - - - -
25/11:00pm 18.6 CALM 0 2 1017.1 - 0.0 - - - - - - -
25/10:30pm 18.8 CALM 0 0 1017.2 - 0.0 - - - - - - -
25/10:00pm 19.1 CALM 0 1 1017.0 - 0.0 - - - - - - -
25/09:30pm 19.3 CALM 0 0 1016.8 - 0.0 - - - - - - -
25/09:00pm 19.8 W 4 6 1016.6 - 0.0 - - - - - - -
25/08:30pm 19.9 W 2 4 1016.6 - 0.0 - - - - - - -
25/08:00pm 20.4 W 2 5 1016.3 - 0.0 - - - - - - -
25/07:30pm 21.6 S 2 5 1015.9 - 0.0 - - - - - - -
25/07:00pm 21.7 S 4 6 1015.5 - 0.0 - - - - - - -
25/06:30pm 21.4 SE 4 4 1015.3 - 0.0 - - - - - - -
25/06:00pm 22.5 SSE 3 5 1015.0 - 0.0 - - - - - - -
25/05:30pm 23.6 SSE 4 6 1014.9 - 0.0 - - - - - - -
25/05:00pm 24.7 SE 6 8 1014.7 - 0.0 - - - - - - -
25/04:30pm 25.1 SE 6 9 1014.5 - 0.0 - - - - - - -
25/04:00pm 25.9 ESE 6 9 1014.3 - 0.0 - - - - - - -
25/03:30pm 26.6 SSE 6 9 1014.4 - 0.0 - - - - - - -
25/03:00pm 26.8 SSE 6 10 1014.4 - 0.0 - - - - - - -
25/02:30pm 26.7 SSE 6 11 1014.8 - 0.0 - - - - - - -
25/02:00pm 27.0 SSE 7 11 1015.3 - 0.0 - - - - - - -
25/01:30pm 26.7 SSE 8 14 1015.6 - 0.0 - - - - - - -
25/01:00pm 26.7 SE 7 13 1016.0 - 0.0 - - - - - - -
25/12:30pm 25.9 SE 8 13 1016.5 - 0.0 - - - - - - -
25/12:00pm 25.9 SE 8 12 1016.7 - 0.0 - - - - - - -
25/11:30am 26.1 SSE 7 11 1017.0 - 0.0 - - - - - - -
25/11:00am 25.4 SSE 7 9 1017.4 - 0.0 - - - - - - -
25/10:30am 25.2 SSE 5 9 1017.4 - 0.0 - - - - - - -
25/10:00am 24.9 SE 1 4 1017.7 - 0.0 - - - - - - -
25/09:30am 22.7 CALM 0 0 1017.9 - 0.0 - - - - - - -
25/09:00am 21.3 W 2 4 1017.8 - 0.0 - - - - - - -
25/08:30am 19.1 W 1 4 1017.6 - 0.0 - - - - - - -
25/08:00am 17.4 CALM 0 3 1017.5 - 0.0 - - - - - - -
25/07:30am 17.2 CALM 0 3 1017.0 - 0.0 - - - - - - -
25/07:00am 16.1 CALM 0 0 1016.7 - 0.0 - - - - - - -
25/06:30am 16.1 CALM 0 0 1016.2 - 0.0 - - - - - - -
25/06:00am 16.4 CALM 0 2 1015.7 - 0.0 - - - - - - -
25/05:30am 16.4 WNW 3 5 1015.6 - 0.0 - - - - - - -
25/05:00am 16.6 W 4 6 1015.3 - 0.0 - - - - - - -
25/04:30am 16.2 WSW 4 5 1015.3 - 0.0 - - - - - - -
25/04:00am 16.4 W 1 4 1015.1 - 0.0 - - - - - - -
25/03:30am 16.4 WSW 4 5 1015.1 - 0.0 - - - - - - -
25/03:00am 16.5 WNW 4 6 1015.2 - 0.0 - - - - - - -
25/02:30am 16.9 W 2 5 1015.5 - 0.0 - - - - - - -
25/02:00am 17.1 W 2 4 1015.6 - 0.0 - - - - - - -
25/01:30am 17.1 WNW 3 4 1015.8 - 0.0 - - - - - - -
25/01:00am 17.1 W 4 7 1016.0 - 0.0 - - - - - - -
25/12:30am 17.1 W 3 6 1016.1 - 0.0 - - - - - - -
25/12:00am 17.8 W 2 5 1016.1 - 0.0 - - - - - - -
 
Date/Time
EST
Temp
°C
Wind Pressure Rain since
9am
mm
Weather Cloud Vis
km
Sea
Height
m
Swell
Dir  Spd
kts
Gust
kts
hPa Trend Height
m
Period
s
Dir
24/11:30pm 17.8 W 1 4 1016.3 - 0.0 - - - - - - -
24/11:00pm 18.0 W 3 5 1016.4 - 0.0 - - - - - - -
24/10:30pm 18.3 W 3 5 1016.5 - 0.0 - - - - - - -
24/10:00pm 18.4 W 1 7 1016.5 - 0.0 - - - - - - -
24/09:30pm 18.7 W 3 5 1016.2 - 0.0 - - - - - - -
24/09:00pm 18.9 WNW 4 5 1016.0 - 0.0 - - - - - - -
24/08:30pm 19.1 CALM 0 0 1015.9 - 0.0 - - - - - - -
24/08:00pm 19.7 CALM 0 0 1015.5 - 0.0 - - - - - - -
24/07:30pm 20.3 WSW 3 4 1015.1 - 0.0 - - - - - - -
24/07:00pm 20.8 CALM 0 0 1014.8 - 0.0 - - - - - - -
24/06:30pm 21.6 S 1 3 1014.7 - 0.0 - - - - - - -
24/06:00pm 22.7 SSE 5 6 1014.2 - 0.0 - - - - - - -
24/05:30pm 23.8 SSE 5 7 1014.2 - 0.0 - - - - - - -
24/05:00pm 25.1 SSE 5 6 1014.1 - 0.0 - - - - - - -
24/04:30pm 25.9 SE 5 9 1013.9 - 0.0 - - - - - - -
24/04:00pm 26.6 SE 6 11 1013.8 - 0.0 - - - - - - -
24/03:30pm 27.1 SSE 5 8 1013.7 - 0.0 - - - - - - -
24/03:00pm 27.4 ESE 5 8 1013.7 - 0.0 - - - - - - -
24/02:30pm 27.3 SE 6 8 1014.1 - 0.0 - - - - - - -
24/02:00pm 27.3 ESE 5 8 1014.4 - 0.0 - - - - - - -
24/01:30pm 27.0 S 4 10 1014.7 - 0.0 - - - - - - -
24/01:00pm 27.4 ESE 5 8 1015.0 - 0.0 - - - - - - -
24/12:30pm 26.8 E 5 6 1015.4 - 0.0 - - - - - - -
24/12:00pm 26.1 SSE 5 7 1015.8 - 0.0 - - - - - - -
24/11:30am 25.8 S 2 5 1016.3 - 0.0 - - - - - - -
24/11:00am 26.3 SSE 4 7 1016.4 - 0.0 - - - - - - -
24/10:30am 25.8 S 4 7 1016.7 - 0.0 - - - - - - -
24/10:00am 24.7 SW 3 5 1016.8 - 0.0 - - - - - - -
24/09:30am 23.6 CALM 0 0 1016.8 - 0.0 - - - - - - -
24/09:00am 21.6 CALM 0 0 1016.6 - 0.2 - - - - - - -
24/08:30am 19.8 CALM 0 1 1016.6 - 0.2 - - - - - - -
24/08:00am 17.7 SW 2 4 1016.4 - 0.2 - - - - - - -
24/07:30am 17.0 WSW 6 8 1016.2 - 0.2 - - - - - - -
24/07:00am 16.9 CALM 0 3 1015.9 - 0.2 - - - - - - -
24/06:30am 16.9 CALM 0 3 1015.5 - 0.2 - - - - - - -
24/06:00am 17.0 CALM 0 3 1015.0 - 0.2 - - - - - - -

Other Formats:

Comma delimited format used in spreadsheet applications
http://www.bom.gov.au/fwo/IDQ60701/IDQ60701.95292.axf

JavaScript Object Notation format (JSON) in row-major order
http://www.bom.gov.au/fwo/IDQ60701/IDQ60701.95292.json